Observation data for Tulia on 05/24/2020      Previous  Date  Next       Current Mesonet Observations  Soil Data  Daily Summary Page  Observations in Plain Language
KTIS 240500Z 14007KT 17/12 A2984 RMK A01 T01710115  RH  072%=      5-min Rain = 0
KTIS 240505Z 13007KT 17/12 A2984 RMK A01 T01710115  RH  072%=      5-min Rain = 0
KTIS 240510Z 11006KT 17/12 A2984 RMK A01 T01700116  RH  073%=      5-min Rain = 0
KTIS 240515Z 11005KT 17/12 A2984 RMK A01 T01670117  RH  075%=      5-min Rain = 0
KTIS 240520Z 13005KT 17/12 A2984 RMK A01 T01650117  RH  076%=      5-min Rain = 0
KTIS 240525Z 14006KT 16/12 A2984 RMK A01 T01640117  RH  077%=      5-min Rain = 0
KTIS 240530Z 14006KT 16/12 A2984 RMK A01 T01640116  RH  076%=      5-min Rain = 0
KTIS 240535Z 14006KT 17/12 A2985 RMK A01 T01650116  RH  076%=      5-min Rain = 0
KTIS 240540Z 12007KT 16/12 A2985 RMK A01 T01640116  RH  076%=      5-min Rain = 0
KTIS 240545Z 13006KT 16/12 A2985 RMK A01 T01620118  RH  078%=      5-min Rain = 0
KTIS 240550Z 16008KT 16/12 A2985 RMK A01 T01620118  RH  078%=      5-min Rain = 0
KTIS 240555Z 17010KT 17/11 A2985 RMK A01 T01680114  RH  073%=      5-min Rain = 0
KTIS 240600Z 17010KT 17/11 A2985 RMK A01 T01710112  RH  071%=      5-min Rain = 0
KTIS 240605Z 17010KT 17/11 A2985 RMK A01 T01720111  RH  070%=      5-min Rain = 0
KTIS 240610Z 17010KT 17/11 A2984 RMK A01 T01720110  RH  069%=      5-min Rain = 0
KTIS 240615Z 17011KT 17/11 A2984 RMK A01 T01720110  RH  069%=      5-min Rain = 0
KTIS 240620Z 18010KT 17/11 A2984 RMK A01 T01710109  RH  070%=      5-min Rain = 0
KTIS 240625Z 18011KT 17/11 A2984 RMK A01 T01690109  RH  070%=      5-min Rain = 0
KTIS 240630Z 18011KT 17/11 A2984 RMK A01 T01690109  RH  070%=      5-min Rain = 0
KTIS 240635Z 18011KT 17/11 A2984 RMK A01 T01700109  RH  070%=      5-min Rain = 0
KTIS 240640Z 18012KT 17/11 A2984 RMK A01 T01700109  RH  069%=      5-min Rain = 0
KTIS 240645Z 18014KT 17/11 A2984 RMK A01 T01720107  RH  068%=      5-min Rain = 0
KTIS 240650Z 17013KT 18/11 A2984 RMK A01 T01750106  RH  066%=      5-min Rain = 0
KTIS 240655Z 17012KT 17/11 A2984 RMK A01 T01740107  RH  067%=      5-min Rain = 0
KTIS 240700Z 17012KT 17/11 A2984 RMK A01 T01720109  RH  069%=      5-min Rain = 0
KTIS 240705Z 17010KT 17/11 A2984 RMK A01 T01700110  RH  070%=      5-min Rain = 0
KTIS 240710Z 15009KT 17/11 A2984 RMK A01 T01670111  RH  072%=      5-min Rain = 0
KTIS 240715Z 15011KT 17/11 A2985 RMK A01 T01660111  RH  073%=      5-min Rain = 0
KTIS 240720Z 14010KT 17/11 A2985 RMK A01 T01650110  RH  073%=      5-min Rain = 0
KTIS 240725Z 14010KT 16/11 A2985 RMK A01 T01640110  RH  073%=      5-min Rain = 0
KTIS 240730Z 14009KT 16/11 A2985 RMK A01 T01640110  RH  073%=      5-min Rain = 0
KTIS 240735Z 15010KT 17/11 A2985 RMK A01 T01650110  RH  072%=      5-min Rain = 0
KTIS 240740Z 16011KT 17/11 A2985 RMK A01 T01660109  RH  072%=      5-min Rain = 0
KTIS 240745Z 16010KT 17/11 A2985 RMK A01 T01650110  RH  072%=      5-min Rain = 0
KTIS 240750Z 15012KT 17/11 A2985 RMK A01 T01660109  RH  072%=      5-min Rain = 0
KTIS 240755Z 16012KT 17/11 A2985 RMK A01 T01670109  RH  071%=      5-min Rain = 0
KTIS 240800Z 16011KT 17/11 A2985 RMK A01 T01670109  RH  071%=      5-min Rain = 0
KTIS 240805Z 16011KT 17/11 A2985 RMK A01 T01660110  RH  072%=      5-min Rain = 0
KTIS 240810Z 16012KT 17/11 A2985 RMK A01 T01660110  RH  072%=      5-min Rain = 0
KTIS 240815Z 16012KT 17/11 A2984 RMK A01 T01660110  RH  072%=      5-min Rain = 0
KTIS 240820Z 17012KT 17/11 A2984 RMK A01 T01650111  RH  073%=      5-min Rain = 0
KTIS 240825Z 17012KT 16/11 A2984 RMK A01 T01640112  RH  074%=      5-min Rain = 0
KTIS 240830Z 16012KT 16/11 A2984 RMK A01 T01630113  RH  075%=      5-min Rain = 0
KTIS 240835Z 17012KT 16/11 A2984 RMK A01 T01620114  RH  076%=      5-min Rain = 0
KTIS 240840Z 17012KT 16/11 A2984 RMK A01 T01620114  RH  076%=      5-min Rain = 0
KTIS 240845Z 17011KT 16/12 A2984 RMK A01 T01610115  RH  077%=      5-min Rain = 0
KTIS 240850Z 17010KT 16/12 A2984 RMK A01 T01590115  RH  078%=      5-min Rain = 0
KTIS 240855Z 17009KT 16/12 A2984 RMK A01 T01570116  RH  079%=      5-min Rain = 0
KTIS 240900Z 16009KT 16/12 A2985 RMK A01 T01560116  RH  080%=      5-min Rain = 0
KTIS 240905Z 15009KT 15/12 A2985 RMK A01 T01540117  RH  081%=      5-min Rain = 0
KTIS 240910Z 15008KT 15/12 A2985 RMK A01 T01530117  RH  082%=      5-min Rain = 0
KTIS 240915Z 14007KT 15/12 A2985 RMK A01 T01510117  RH  083%=      5-min Rain = 0
KTIS 240920Z 13008KT 15/12 A2986 RMK A01 T01500117  RH  083%=      5-min Rain = 0
KTIS 240925Z 13008KT 15/12 A2986 RMK A01 T01510117  RH  084%=      5-min Rain = 0
KTIS 240930Z 13007KT 15/12 A2986 RMK A01 T01500117  RH  084%=      5-min Rain = 0
KTIS 240935Z 14008KT 15/12 A2986 RMK A01 T01500118  RH  084%=      5-min Rain = 0
KTIS 240940Z 13008KT 15/12 A2986 RMK A01 T01490119  RH  085%=      5-min Rain = 0
KTIS 240945Z 13006KT 15/12 A2986 RMK A01 T01490118  RH  085%=      5-min Rain = 0
KTIS 240950Z 12007KT 15/12 A2986 RMK A01 T01470118  RH  086%=      5-min Rain = 0
KTIS 240955Z 13006KT 15/12 A2986 RMK A01 T01450117  RH  086%=      5-min Rain = 0
KTIS 241000Z 13006KT 14/12 A2986 RMK A01 T01430117  RH  087%=      5-min Rain = 0
KTIS 241005Z 14006KT 14/12 A2986 RMK A01 T01420117  RH  088%=      5-min Rain = 0
KTIS 241010Z 14008KT 14/12 A2986 RMK A01 T01410116  RH  088%=      5-min Rain = 0
KTIS 241015Z 15007KT 14/12 A2986 RMK A01 T01410116  RH  088%=      5-min Rain = 0
KTIS 241020Z 15007KT 14/12 A2986 RMK A01 T01400115  RH  088%=      5-min Rain = 0
KTIS 241025Z 16008KT 14/12 A2985 RMK A01 T01400115  RH  088%=      5-min Rain = 0
KTIS 241030Z 15009KT 14/12 A2985 RMK A01 T01400115  RH  088%=      5-min Rain = 0
KTIS 241035Z 16008KT 14/12 A2985 RMK A01 T01410115  RH  087%=      5-min Rain = 0
KTIS 241040Z 16008KT 14/11 A2985 RMK A01 T01410114  RH  087%=      5-min Rain = 0
KTIS 241045Z 16009KT 14/11 A2985 RMK A01 T01410114  RH  087%=      5-min Rain = 0
KTIS 241050Z 17009KT 14/11 A2985 RMK A01 T01430114  RH  086%=      5-min Rain = 0
KTIS 241055Z 17009KT 14/11 A2985 RMK A01 T01430113  RH  085%=      5-min Rain = 0
KTIS 241100Z 18008KT 14/11 A2985 RMK A01 T01430112  RH  085%=      5-min Rain = 0
KTIS 241105Z 18008KT 14/11 A2986 RMK A01 T01400112  RH  086%=      5-min Rain = 0
KTIS 241110Z 18008KT 14/11 A2986 RMK A01 T01390112  RH  087%=      5-min Rain = 0
KTIS 241115Z 17008KT 14/11 A2986 RMK A01 T01380112  RH  087%=      5-min Rain = 0
KTIS 241120Z 18008KT 14/11 A2986 RMK A01 T01370111  RH  087%=      5-min Rain = 0
KTIS 241125Z 18007KT 14/11 A2986 RMK A01 T01360110  RH  088%=      5-min Rain = 0
KTIS 241130Z 19008KT 14/11 A2986 RMK A01 T01380110  RH  086%=      5-min Rain = 0
KTIS 241135Z 19009KT 14/11 A2985 RMK A01 T01400109  RH  084%=      5-min Rain = 0
KTIS 241140Z 19009KT 14/11 A2985 RMK A01 T01410108  RH  083%=      5-min Rain = 0
KTIS 241145Z 19010KT 14/11 A2985 RMK A01 T01410108  RH  083%=      5-min Rain = 0
KTIS 241150Z 18010KT 14/11 A2985 RMK A01 T01430108  RH  082%=      5-min Rain = 0
KTIS 241155Z 19010KT 14/11 A2985 RMK A01 T01440108  RH  082%=      5-min Rain = 0
KTIS 241200Z 18010KT 15/11 A2985 RMK A01 T01450109  RH  082%=      5-min Rain = 0
KTIS 241205Z 18009KT 15/11 A2985 RMK A01 T01450109  RH  082%=      5-min Rain = 0
KTIS 241210Z 18010KT 15/11 A2985 RMK A01 T01460109  RH  081%=      5-min Rain = 0
KTIS 241215Z 18010KT 15/11 A2985 RMK A01 T01480110  RH  081%=      5-min Rain = 0
KTIS 241220Z 18010G15KT 15/11 A2985 RMK A01 T01490111  RH  081%=      5-min Rain = 0
KTIS 241225Z 18012KT 15/11 A2985 RMK A01 T01530111  RH  079%=      5-min Rain = 0
KTIS 241230Z 18015G20KT 16/11 A2985 RMK A01 T01580112  RH  077%=      5-min Rain = 0
KTIS 241235Z 18014KT 17/11 A2985 RMK A01 T01660112  RH  073%=      5-min Rain = 0
KTIS 241240Z 18013KT 17/11 A2985 RMK A01 T01700112  RH  071%=      5-min Rain = 0
KTIS 241245Z 18015KT 17/11 A2985 RMK A01 T01710112  RH  071%=      5-min Rain = 0
KTIS 241250Z 18013KT 17/11 A2986 RMK A01 T01730113  RH  070%=      5-min Rain = 0
KTIS 241255Z 19013G18KT 17/11 A2986 RMK A01 T01730113  RH  070%=      5-min Rain = 0
KTIS 241300Z 19015G20KT 17/11 A2985 RMK A01 T01730114  RH  070%=      5-min Rain = 0
KTIS 241305Z 19014KT 18/12 A2985 RMK A01 T01750115  RH  070%=      5-min Rain = 0
KTIS 241310Z 20015KT 18/12 A2985 RMK A01 T01780115  RH  069%=      5-min Rain = 0
KTIS 241315Z 20017G22KT 18/12 A2985 RMK A01 T01790115  RH  068%=      5-min Rain = 0
KTIS 241320Z 20018KT 18/12 A2984 RMK A01 T01810115  RH  068%=      5-min Rain = 0
KTIS 241325Z 20018KT 18/12 A2984 RMK A01 T01840115  RH  067%=      5-min Rain = 0
KTIS 241330Z 20016G22KT 19/12 A2984 RMK A01 T01880117  RH  066%=      5-min Rain = 0
KTIS 241335Z 19019G24KT 19/12 A2984 RMK A01 T01900116  RH  065%=      5-min Rain = 0
KTIS 241340Z 20016G22KT 19/12 A2984 RMK A01 T01940119  RH  064%=      5-min Rain = 0
KTIS 241345Z 20019G26KT 20/12 A2984 RMK A01 T01960118  RH  063%=      5-min Rain = 0
KTIS 241350Z 20020KT 20/12 A2984 RMK A01 T01960118  RH  063%=      5-min Rain = 0
KTIS 241355Z 20021KT 20/12 A2984 RMK A01 T01980119  RH  062%=      5-min Rain = 0
KTIS 241400Z 20020G25KT 20/12 A2984 RMK A01 T02010119  RH  061%=      5-min Rain = 0
KTIS 241405Z 20021G26KT 20/12 A2984 RMK A01 T02030119  RH  061%=      5-min Rain = 0
KTIS 241410Z 21020G25KT 21/12 A2984 RMK A01 T02050120  RH  060%=      5-min Rain = 0
KTIS 241415Z 20020KT 21/12 A2984 RMK A01 T02080121  RH  060%=      5-min Rain = 0
KTIS 241420Z 20020KT 21/12 A2984 RMK A01 T02100122  RH  059%=      5-min Rain = 0
KTIS 241425Z 20019G26KT 21/12 A2984 RMK A01 T02140123  RH  058%=      5-min Rain = 0
KTIS 241430Z 20019G26KT 22/12 A2984 RMK A01 T02150123  RH  058%=      5-min Rain = 0
KTIS 241435Z 20020G25KT 22/12 A2984 RMK A01 T02180124  RH  057%=      5-min Rain = 0
KTIS 241440Z 20019G24KT 22/13 A2984 RMK A01 T02190125  RH  057%=      5-min Rain = 0
KTIS 241445Z 20020G26KT 22/13 A2984 RMK A01 T02230126  RH  056%=      5-min Rain = 0
KTIS 241450Z 20020G28KT 22/13 A2984 RMK A01 T02230126  RH  056%=      5-min Rain = 0
KTIS 241455Z 20020G26KT 23/13 A2984 RMK A01 T02250127  RH  056%=      5-min Rain = 0
KTIS 241500Z 19022KT 23/13 A2984 RMK A01 T02250125  RH  055%=      5-min Rain = 0
KTIS 241505Z 19021G26KT 23/13 A2984 RMK A01 T02280126  RH  055%=      5-min Rain = 0
KTIS 241510Z 20020G27KT 23/13 A2984 RMK A01 T02310128  RH  054%=      5-min Rain = 0
KTIS 241515Z 20021G26KT 23/13 A2984 RMK A01 T02320128  RH  054%=      5-min Rain = 0
KTIS 241520Z 19022KT 23/13 A2984 RMK A01 T02310127  RH  054%=      5-min Rain = 0
KTIS 241525Z 20020G26KT 24/13 A2984 RMK A01 T02360130  RH  053%=      5-min Rain = 0
KTIS 241530Z 20022KT 24/13 A2984 RMK A01 T02360129  RH  053%=      5-min Rain = 0
KTIS 241535Z 20022KT 24/13 A2984 RMK A01 T02350128  RH  053%=      5-min Rain = 0
KTIS 241540Z 20020G25KT 24/13 A2984 RMK A01 T02400129  RH  052%=      5-min Rain = 0
KTIS 241545Z 21019G24KT 24/13 A2983 RMK A01 T02400128  RH  051%=      5-min Rain = 0
KTIS 241550Z 21019G24KT 24/13 A2983 RMK A01 T02430129  RH  051%=      5-min Rain = 0
KTIS 241555Z 21019G26KT 25/13 A2983 RMK A01 T02450128  RH  050%=      5-min Rain = 0
KTIS 241600Z 21018G23KT 25/13 A2983 RMK A01 T02470128  RH  049%=      5-min Rain = 0
KTIS 241605Z 22019G24KT 25/13 A2983 RMK A01 T02500126  RH  048%=      5-min Rain = 0
KTIS 241610Z 20019KT 25/13 A2983 RMK A01 T02490127  RH  048%=      5-min Rain = 0
KTIS 241615Z 22018G23KT 25/12 A2983 RMK A01 T02520123  RH  046%=      5-min Rain = 0
KTIS 241620Z 21016G21KT 26/13 A2983 RMK A01 T02560125  RH  046%=      5-min Rain = 0
KTIS 241625Z 21015G22KT 26/13 A2984 RMK A01 T02580127  RH  046%=      5-min Rain = 0
KTIS 241630Z 22016G23KT 26/12 A2984 RMK A01 T02610120  RH  043%=      5-min Rain = 0
KTIS 241635Z 23013G18KT 26/12 A2984 RMK A01 T02620122  RH  043%=      5-min Rain = 0
KTIS 241640Z 25012G18KT 26/12 A2985 RMK A01 T02640123  RH  043%=      5-min Rain = 0
KTIS 241645Z 23012G18KT 27/12 A2985 RMK A01 T02650123  RH  043%=      5-min Rain = 0
KTIS 241650Z 24013G20KT 27/12 A2984 RMK A01 T02660117  RH  041%=      5-min Rain = 0
KTIS 241655Z 25012G17KT 27/12 A2984 RMK A01 T02680120  RH  041%=      5-min Rain = 0
KTIS 241700Z 24011G17KT 27/12 A2985 RMK A01 T02700118  RH  040%=      5-min Rain = 0
KTIS 241705Z 21013KT 27/12 A2985 RMK A01 T02680117  RH  040%=      5-min Rain = 0
KTIS 241710Z 21012G17KT 27/12 A2984 RMK A01 T02700120  RH  041%=      5-min Rain = 0
KTIS 241715Z 22015KT 27/11 A2984 RMK A01 T02730114  RH  039%=      5-min Rain = 0
KTIS 241720Z 22012G17KT 28/11 A2984 RMK A01 T02760113  RH  038%=      5-min Rain = 0
KTIS 241725Z 22012G18KT 27/11 A2984 RMK A01 T02740113  RH  038%=      5-min Rain = 0
KTIS 241730Z 22010KT 28/12 A2984 RMK A01 T02790115  RH  037%=      5-min Rain = 0
KTIS 241735Z 24011G16KT 28/11 A2984 RMK A01 T02810110  RH  036%=      5-min Rain = 0
KTIS 241740Z 25012KT 28/10 A2984 RMK A01 T02830101  RH  033%=      5-min Rain = 0
KTIS 241745Z 24010G15KT 29/10 A2984 RMK A01 T02850104  RH  034%=      5-min Rain = 0
KTIS 241750Z 21011KT 29/10 A2984 RMK A01 T02870100  RH  032%=      5-min Rain = 0
KTIS 241755Z 20009KT 29/10 A2983 RMK A01 T02890102  RH  032%=      5-min Rain = 0
KTIS 241800Z 21011G16KT 29/11 A2983 RMK A01 T02910107  RH  033%=      5-min Rain = 0
KTIS 241805Z 21009G16KT 29/10 A2983 RMK A01 T02890097  RH  031%=      5-min Rain = 0
KTIS 241810Z 20012KT 29/09 A2983 RMK A01 T02940091  RH  029%=      5-min Rain = 0
KTIS 241815Z 20011G17KT 29/09 A2983 RMK A01 T02930088  RH  029%=      5-min Rain = 0
KTIS 241820Z 19009KT 30/09 A2983 RMK A01 T02970090  RH  028%=      5-min Rain = 0
KTIS 241825Z 24009G14KT 30/09 A2983 RMK A01 T02990092  RH  028%=      5-min Rain = 0
KTIS 241830Z 23011KT 30/09 A2982 RMK A01 T02990089  RH  028%=      5-min Rain = 0
KTIS 241835Z 22011KT 30/09 A2982 RMK A01 T02980092  RH  028%=      5-min Rain = 0
KTIS 241840Z 21008KT 30/09 A2982 RMK A01 T02990090  RH  028%=      5-min Rain = 0
KTIS 241845Z 24011KT 31/07 A2982 RMK A01 T03050073  RH  024%=      5-min Rain = 0
KTIS 241850Z 23009G15KT 30/08 A2982 RMK A01 T03030079  RH  025%=      5-min Rain = 0
KTIS 241855Z 23010G15KT 30/08 A2981 RMK A01 T03040080  RH  025%=      5-min Rain = 0
KTIS 241900Z 25010G17KT 30/08 A2981 RMK A01 T03030078  RH  025%=      5-min Rain = 0
KTIS 241905Z 23009G14KT 31/08 A2981 RMK A01 T03060079  RH  025%=      5-min Rain = 0
KTIS 241910Z 20007KT 31/08 A2981 RMK A01 T03090075  RH  024%=      5-min Rain = 0
KTIS 241915Z 25007G13KT 31/08 A2981 RMK A01 T03090079  RH  025%=      5-min Rain = 0
KTIS 241920Z 24008KT 31/08 A298 RMK A01 T03120081  RH  024%=      5-min Rain = 0
KTIS 241925Z 22008G15KT 31/08 A298 RMK A01 T03090083  RH  025%=      5-min Rain = 0
KTIS 241930Z 17006G13KT 31/09 A298 RMK A01 T03080087  RH  026%=      5-min Rain = 0
KTIS 241935Z 19010G15KT 31/09 A2979 RMK A01 T03080088  RH  026%=      5-min Rain = 0
KTIS 241940Z 17007KT 31/09 A2979 RMK A01 T03110088  RH  026%=      5-min Rain = 0
KTIS 241945Z 17010G18KT 31/09 A2979 RMK A01 T03130093  RH  027%=      5-min Rain = 0
KTIS 241950Z 19008G13KT 31/09 A2979 RMK A01 T03140091  RH  026%=      5-min Rain = 0
KTIS 241955Z 19011G17KT 32/09 A2979 RMK A01 T03170092  RH  026%=      5-min Rain = 0
KTIS 242000Z 16011KT 31/09 A2979 RMK A01 T03130093  RH  026%=      5-min Rain = 0
KTIS 242005Z 17006KT 32/09 A2979 RMK A01 T03150091  RH  026%=      5-min Rain = 0
KTIS 242010Z 18009G14KT 32/09 A2978 RMK A01 T03160090  RH  025%=      5-min Rain = 0
KTIS 242015Z 14010G17KT 32/10 A2978 RMK A01 T03150103  RH  028%=      5-min Rain = 0
KTIS 242020Z 17012G20KT 32/10 A2978 RMK A01 T03170102  RH  028%=      5-min Rain = 0
KTIS 242025Z 16010G16KT 32/10 A2978 RMK A01 T03170104  RH  028%=      5-min Rain = 0
KTIS 242030Z 13011KT 30/12 A2977 RMK A01 T03030119  RH  033%=      5-min Rain = 0
KTIS 242035Z 16012KT 30/12 A2977 RMK A01 T02950118  RH  035%=      5-min Rain = 0
KTIS 242040Z 17010KT 29/12 A2977 RMK A01 T02940118  RH  035%=      5-min Rain = 0
KTIS 242045Z 16010KT 29/12 A2977 RMK A01 T02920120  RH  036%=      5-min Rain = 0
KTIS 242050Z 14009KT 29/13 A2977 RMK A01 T02890128  RH  039%=      5-min Rain = 0
KTIS 242055Z 14009G15KT 29/13 A2977 RMK A01 T02850128  RH  039%=      5-min Rain = 0
KTIS 242100Z 15012KT 29/12 A2977 RMK A01 T02850123  RH  038%=      5-min Rain = 0
KTIS 242105Z 16012KT 29/12 A2977 RMK A01 T02860123  RH  038%=      5-min Rain = 0
KTIS 242110Z 18010G15KT 29/12 A2977 RMK A01 T02870123  RH  038%=      5-min Rain = 0
KTIS 242115Z 18009G15KT 29/13 A2976 RMK A01 T02870129  RH  039%=      5-min Rain = 0
KTIS 242120Z 19005KT 29/11 A2975 RMK A01 T02910113  RH  034%=      5-min Rain = 0
KTIS 242125Z 21008G19KT 30/11 A2975 RMK A01 T02990110  RH  032%=      5-min Rain = 0
KTIS 242130Z 17014KT 30/12 A2976 RMK A01 T02980120  RH  035%=      5-min Rain = 0
KTIS 242135Z 19013G18KT 29/12 A2976 RMK A01 T02920120  RH  036%=      5-min Rain = 0
KTIS 242140Z 21013G19KT 29/05 A2976 RMK A01 T02920054  RH  023%=      5-min Rain = 0
KTIS 242145Z 21013KT 29/02 A2976 RMK A01 T02940024  RH  018%=      5-min Rain = 0
KTIS 242150Z 26011G19KT 30/03 A2976 RMK A01 T02960031  RH  019%=      5-min Rain = 0
KTIS 242155Z 28012G17KT 29/03 A2974 RMK A01 T02930032  RH  019%=      5-min Rain = 0
KTIS 242200Z 27007KT 30/03 A2974 RMK A01 T02950025  RH  018%=      5-min Rain = 0
KTIS 242205Z 24006KT 30/03 A2973 RMK A01 T02950026  RH  018%=      5-min Rain = 0
KTIS 242210Z 22008KT 30/04 A2973 RMK A01 T02970036  RH  019%=      5-min Rain = 0
KTIS 242215Z 17007KT 29/06 A2973 RMK A01 T02930056  RH  023%=      5-min Rain = 0
KTIS 242220Z 13007KT 28/10 A2972 RMK A01 T02840098  RH  032%=      5-min Rain = 0
KTIS 242225Z 13006KT 28/11 A2972 RMK A01 T02800105  RH  035%=      5-min Rain = 0
KTIS 242230Z 16008G17KT 28/10 A2973 RMK A01 T02760098  RH  034%=      5-min Rain = 0
KTIS 242235Z 21017G28KT 28/05 A2973 RMK A01 T02800051  RH  024%=      5-min Rain = 0
KTIS 242240Z 23024G33KT 27/06 A2974 RMK A01 T02660056  RH  027%=      5-min Rain = 0
KTIS 242245Z 21015G25KT 25/06 A2975 RMK A01 T02510062  RH  031%=      5-min Rain = 0.02
KTIS 242250Z 14016G22KT 23/08 A2974 RMK A01 T02300078  RH  039%=      5-min Rain = 0
KTIS 242255Z 13017G24KT 21/09 A2973 RMK A01 T02060091  RH  049%=      5-min Rain = 0.01
KTIS 242300Z 10014KT 20/10 A2971 RMK A01 T02000098  RH  054%=      5-min Rain = 0
KTIS 242305Z 09011KT 21/09 A2971 RMK A01 T02110091  RH  047%=      5-min Rain = 0
KTIS 242310Z 09009KT 21/10 A2971 RMK A01 T02140097  RH  049%=      5-min Rain = 0
KTIS 242315Z 07008KT 23/08 A2971 RMK A01 T02260084  RH  042%=      5-min Rain = 0
KTIS 242320Z 08008KT 22/11 A2971 RMK A01 T02240107  RH  049%=      5-min Rain = 0
KTIS 242325Z 07006KT 22/12 A2971 RMK A01 T02170120  RH  056%=      5-min Rain = 0
KTIS 242330Z 06007KT 22/12 A2971 RMK A01 T02160121  RH  057%=      5-min Rain = 0
KTIS 242335Z 06006KT 22/12 A2971 RMK A01 T02190123  RH  056%=      5-min Rain = 0
KTIS 242340Z 06005KT 22/12 A2971 RMK A01 T02210121  RH  055%=      5-min Rain = 0
KTIS 242345Z 08004KT 23/12 A297 RMK A01 T02250117  RH  052%=      5-min Rain = 0
KTIS 242350Z 11003KT 23/10 A2969 RMK A01 T02290101  RH  046%=      5-min Rain = 0
KTIS 242355Z 15005KT 23/12 A2969 RMK A01 T02290124  RH  054%=      5-min Rain = 0
KTIS 250000Z 14005KT 22/13 A2968 RMK A01 T02220133  RH  059%=      5-min Rain = 0
KTIS 250005Z 13005KT 22/14 A2968 RMK A01 T02190144  RH  065%=      5-min Rain = 0
KTIS 250010Z 13005KT 22/14 A2968 RMK A01 T02170138  RH  064%=      5-min Rain = 0
KTIS 250015Z 12003KT 22/13 A2967 RMK A01 T02210129  RH  058%=      5-min Rain = 0
KTIS 250020Z 12004KT 22/12 A2967 RMK A01 T02240124  RH  055%=      5-min Rain = 0
KTIS 250025Z 14007KT 23/11 A2967 RMK A01 T02250113  RH  051%=      5-min Rain = 0
KTIS 250030Z 17010G17KT 24/08 A2967 RMK A01 T02410081  RH  037%=      5-min Rain = 0
KTIS 250035Z 20009G19KT 25/08 A2967 RMK A01 T02460083  RH  037%=      5-min Rain = 0
KTIS 250040Z 19018G28KT 25/06 A2967 RMK A01 T02480063  RH  032%=      5-min Rain = 0
KTIS 250045Z 18025G33KT 25/06 A2966 RMK A01 T02530055  RH  029%=      5-min Rain = 0
KTIS 250050Z 17024G34KT 24/07 A2966 RMK A01 T02350072  RH  036%=      5-min Rain = 0
KTIS 250055Z 16017G23KT 23/07 A2966 RMK A01 T02300074  RH  038%=      5-min Rain = 0
KTIS 250100Z 17017G22KT 23/08 A2966 RMK A01 T02280076  RH  039%=      5-min Rain = 0
KTIS 250105Z 17020G27KT 22/08 A2966 RMK A01 T02230077  RH  040%=      5-min Rain = 0
KTIS 250110Z 17022G29KT 22/08 A2966 RMK A01 T02200078  RH  041%=      5-min Rain = 0
KTIS 250115Z 16019G27KT 22/08 A2966 RMK A01 T02160081  RH  043%=      5-min Rain = 0
KTIS 250120Z 16017G24KT 22/08 A2965 RMK A01 T02160079  RH  042%=      5-min Rain = 0
KTIS 250125Z 16017KT 23/07 A2965 RMK A01 T02270067  RH  036%=      5-min Rain = 0
KTIS 250130Z 17013KT 23/07 A2965 RMK A01 T02340065  RH  035%=      5-min Rain = 0
KTIS 250135Z 16019G28KT 25/04 A2965 RMK A01 T02500037  RH  026%=      5-min Rain = 0
KTIS 250140Z 18007G22KT 28/00 A2965 RMK A01 T02830000  RH  016%=      5-min Rain = 0
KTIS 250145Z 10011G19KT 28/01 A2962 RMK A01 T02840008  RH  017%=      5-min Rain = 0
KTIS 250150Z 09004G13KT 29/01 A2963 RMK A01 T02860005  RH  016%=      5-min Rain = 0
KTIS 250155Z 13013G20KT 25/06 A2965 RMK A01 T02500064  RH  031%=      5-min Rain = 0
KTIS 250200Z 13012KT 23/08 A2965 RMK A01 T02300080  RH  040%=      5-min Rain = 0
KTIS 250205Z 12009KT 22/08 A2965 RMK A01 T02190084  RH  043%=      5-min Rain = 0
KTIS 250210Z 14007KT 22/08 A2965 RMK A01 T02220079  RH  041%=      5-min Rain = 0
KTIS 250215Z 14006KT 23/07 A2965 RMK A01 T02270068  RH  037%=      5-min Rain = 0
KTIS 250220Z 16006KT 22/08 A2965 RMK A01 T02240083  RH  042%=      5-min Rain = 0
KTIS 250225Z 20004KT 22/09 A2966 RMK A01 T02180087  RH  044%=      5-min Rain = 0
KTIS 250230Z 23001KT 21/08 A2967 RMK A01 T02140084  RH  044%=      5-min Rain = 0
KTIS 250235Z 33002KT 22/08 A2968 RMK A01 T02190078  RH  041%=      5-min Rain = 0
KTIS 250240Z 36008G15KT 22/09 A2969 RMK A01 T02170085  RH  044%=      5-min Rain = 0
KTIS 250245Z 01012KT 22/08 A2969 RMK A01 T02160081  RH  043%=      5-min Rain = 0
KTIS 250250Z 02006KT 22/07 A297 RMK A01 T02210074  RH  040%=      5-min Rain = 0
KTIS 250255Z 00006KT 22/08 A297 RMK A01 T02190077  RH  041%=      5-min Rain = 0
KTIS 250300Z 33006KT 21/08 A297 RMK A01 T02120079  RH  043%=      5-min Rain = 0
KTIS 250305Z 35005KT 21/08 A297 RMK A01 T02050084  RH  047%=      5-min Rain = 0
KTIS 250310Z 02003KT 20/08 A297 RMK A01 T02040083  RH  047%=      5-min Rain = 0
KTIS 250315Z 03002KT 21/08 A2969 RMK A01 T02050084  RH  047%=      5-min Rain = 0
KTIS 250320Z 05004KT 21/08 A2969 RMK A01 T02060081  RH  046%=      5-min Rain = 0
KTIS 250325Z 06008KT 21/09 A297 RMK A01 T02080085  RH  047%=      5-min Rain = 0
KTIS 250330Z 05008KT 20/09 A297 RMK A01 T02040089  RH  049%=      5-min Rain = 0
KTIS 250335Z 04007KT 21/09 A297 RMK A01 T02050086  RH  048%=      5-min Rain = 0
KTIS 250340Z 05012G18KT 20/09 A2971 RMK A01 T02020091  RH  051%=      5-min Rain = 0
KTIS 250345Z 06007KT 20/10 A2971 RMK A01 T01970098  RH  054%=      5-min Rain = 0
KTIS 250350Z 06008KT 19/10 A2971 RMK A01 T01920102  RH  058%=      5-min Rain = 0
KTIS 250355Z 08007KT 19/11 A2972 RMK A01 T01900105  RH  060%=      5-min Rain = 0
KTIS 250400Z 09008KT 19/11 A2972 RMK A01 T01870107  RH  062%=      5-min Rain = 0
KTIS 250405Z 07006KT 19/11 A2971 RMK A01 T01860108  RH  063%=      5-min Rain = 0
KTIS 250410Z 16006KT 18/11 A2972 RMK A01 T01820113  RH  066%=      5-min Rain = 0
KTIS 250415Z 06005KT 18/11 A2971 RMK A01 T01800113  RH  067%=      5-min Rain = 0
KTIS 250420Z 15006G11KT 18/12 A2973 RMK A01 T01790115  RH  069%=      5-min Rain = 0
KTIS 250425Z 10006KT 18/11 A2972 RMK A01 T01820109  RH  065%=      5-min Rain = 0
KTIS 250430Z 17006KT 18/11 A2974 RMK A01 T01810112  RH  066%=      5-min Rain = 0
KTIS 250435Z 13006KT 18/11 A2973 RMK A01 T01800111  RH  067%=      5-min Rain = 0
KTIS 250440Z 14008KT 18/11 A2974 RMK A01 T01790110  RH  066%=      5-min Rain = 0
KTIS 250445Z 13010G16KT 18/11 A2975 RMK A01 T01760111  RH  068%=      5-min Rain = 0
KTIS 250450Z 10011KT 17/11 A2975 RMK A01 T01730112  RH  070%=      5-min Rain = 0
KTIS 250455Z 11013KT 17/11 A2976 RMK A01 T01710113  RH  072%=      5-min Rain = 0

Page generated in 0.0177 seconds.